bourbonandboots.com alexa rank chart, bourbonandboots.com alexa rank daily changes

bourbonandboots.com alexa rank chart, bourbonandboots.com alexa rank daily changes

bourbonandboots.com
Actual rank:
436 074

RANK HISTORY

Date Rank Diff
2016/12/11 436 074 -16 576
2016/12/10 452 650 -5 521
2016/12/09 458 171 +11 443
2016/12/08 446 728 +12 105
2016/12/07 434 623 +9 141
2016/12/06 425 482 +6 064
2016/12/05 419 418 +2 259
2016/12/04 417 159 -15 227
2016/12/02 432 386 -17 998
2016/12/01 450 384 +8 104
2016/11/30 442 280 -18 669
2016/11/29 460 949 -8 505
2016/11/28 469 454 +10 725
2016/11/27 458 729 -7 040
2016/11/26 465 769 +29 974
2016/11/25 435 795 +1 026
2016/11/24 434 769 +19 941
2016/11/23 414 828 -8 031
2016/11/19 422 859 -10 098
2016/11/18 432 957 +4 184
2016/11/17 428 773 -17 917
2016/11/16 446 690 +28 118
2016/11/15 418 572 +11 078
2016/11/14 407 494 -6 623
2016/11/13 414 117 +34 996
2016/11/12 379 121 -1 099
2016/11/11 380 220 -4 948
2016/11/10 385 168 -1 545
2016/11/09 386 713 -24 845
2016/11/08 411 558 +2 074
2016/11/07 409 484 -5 136
2016/11/06 414 620 -8 656
2016/11/05 423 276 +18 172
2016/11/04 405 104 +5 557
2016/11/03 399 547 +9 448
2016/11/02 390 099 +27 496
2016/11/01 362 603 -3 520
2016/10/31 366 123 +5 185
2016/10/30 360 938 +2 310
2016/10/29 358 628 +14 413
2016/10/28 344 215 +268
2016/10/27 343 947 +15 322
2016/10/26 328 625 -15 918
2016/10/25 344 543 -843
2016/10/24 345 386 -12 690
2016/10/23 358 076 +1 247
2016/10/22 356 829 +18 612
2016/10/21 338 217 +14 286
2016/10/20 323 931 -232
2016/10/19 324 163 +7 448
2016/10/18 316 715 -347
2016/10/17 317 062 +7 032
2016/10/16 310 030 -7 921
2016/10/15 317 951 +17 253
2016/10/14 300 698 +396
2016/10/13 300 302 +13 524
2016/10/12 286 778

WIDGET FOR YOUR SITE

DOMAINS WITH THE NEAREST RANK

Domain Rank
metro-cc.hr 436 069
skyspace-my.sharepoint.com 436 070
responsivevoice.com 436 071
hargahpmurah.info 436 072
capital.com.pa 436 073
bourbonandboots.com 436 074
fastwebserver.de 436 075
taporibox.com 436 076
nontonfilmbaru.com 436 077
nassajisport.com 436 078
clickaddict.in 436 079

DOMAINS WITH THE NEAREST RANK BY TLD .com

Domain Rank
ransnet.com 436 064
ds.com 436 065
shoppingcelebrity.com 436 066
livetipsportal.com 436 067
responsivevoice.com 436 071
bourbonandboots.com 436 074
taporibox.com 436 076
nontonfilmbaru.com 436 077
nassajisport.com 436 078
babbleforum.com 436 081
extendhealth.com 436 090